createdAt,value
2018-01-30T00:03:57.608Z,5.00
2018-01-30T00:14:13.031Z,4.70
2018-01-30T00:24:22.455Z,4.57
2018-01-30T00:34:38.149Z,4.07
2018-01-30T00:44:49.012Z,4.10
2018-01-30T00:54:59.899Z,3.90
2018-01-30T01:05:12.619Z,4.07
2018-01-30T01:15:26.627Z,3.70
2018-01-30T01:25:39.740Z,3.90
2018-01-30T01:35:54.243Z,4.10
2018-01-30T01:46:07.321Z,3.90
2018-01-30T01:56:21.763Z,4.00
2018-01-30T02:06:31.188Z,3.50
2018-01-30T02:16:45.094Z,3.30
2018-01-30T02:26:55.364Z,3.43
2018-01-30T02:37:05.005Z,3.50
2018-01-30T02:47:16.002Z,3.30
2018-01-30T02:57:28.907Z,3.23
2018-01-30T03:07:42.635Z,2.73
2018-01-30T03:17:51.193Z,3.00
2018-01-30T03:28:00.331Z,3.10
2018-01-30T03:38:20.465Z,4.60
2018-01-30T03:48:30.938Z,4.10
2018-01-30T03:58:42.748Z,4.10
2018-01-30T04:08:58.820Z,3.87
2018-01-30T04:19:11.709Z,4.10
2018-01-30T04:29:23.612Z,3.50
2018-01-30T04:39:42.317Z,3.53
2018-01-30T04:49:51.160Z,3.77
2018-01-30T05:00:00.527Z,3.40
2018-01-30T05:10:22.361Z,3.37
2018-01-30T05:20:32.501Z,3.57
2018-01-30T05:30:46.429Z,3.50
2018-01-30T05:41:01.429Z,3.20
2018-01-30T05:51:14.824Z,3.10
2018-01-30T06:01:31.305Z,3.30
2018-01-30T06:11:40.882Z,3.30
2018-01-30T06:21:58.145Z,3.07
2018-01-30T06:32:09.981Z,3.00
2018-01-30T06:42:29.035Z,3.10
2018-01-30T06:52:41.565Z,2.90
2018-01-30T07:02:57.267Z,2.87
2018-01-30T07:13:10.993Z,2.93
2018-01-30T07:23:23.327Z,2.77
2018-01-30T07:33:34.528Z,2.90
2018-01-30T07:43:46.694Z,2.77
2018-01-30T07:54:04.564Z,3.43
2018-01-30T08:04:20.801Z,13.53
2018-01-30T08:14:32.385Z,13.90
2018-01-30T08:24:44.489Z,11.90
2018-01-30T08:34:55.116Z,10.03
2018-01-30T08:45:06.350Z,9.10
2018-01-30T08:55:15.371Z,9.77
2018-01-30T09:05:33.169Z,7.87
2018-01-30T09:15:48.993Z,7.40
2018-01-30T09:25:59.199Z,7.03
2018-01-30T09:36:10.057Z,7.20
2018-01-30T09:46:20.227Z,7.03
2018-01-30T09:56:33.248Z,6.20
2018-01-30T10:06:47.939Z,6.00
2018-01-30T10:16:59.462Z,6.20
2018-01-30T10:27:08.298Z,5.40
2018-01-30T10:37:31.109Z,5.57
2018-01-30T10:47:45.152Z,171.57
2018-01-30T10:57:55.437Z,154.20
2018-01-30T11:08:05.819Z,137.53
2018-01-30T11:18:14.951Z,125.23
2018-01-30T11:28:25.900Z,117.10
2018-01-30T11:38:44.060Z,106.30
2018-01-30T11:48:54.516Z,98.60
2018-01-30T11:59:04.403Z,91.13
2018-01-30T12:09:15.350Z,87.30
2018-01-30T12:19:27.174Z,80.87
2018-01-30T12:29:39.750Z,72.97
2018-01-30T12:39:52.254Z,70.07
2018-01-30T12:50:02.547Z,64.70
2018-01-30T13:00:12.170Z,61.90
2018-01-30T13:10:22.902Z,56.40
2018-01-30T13:20:32.192Z,54.43
2018-01-30T13:30:47.355Z,51.20
2018-01-30T13:40:58.911Z,48.63
2018-01-30T13:51:09.550Z,45.33
2018-01-30T14:01:22.081Z,43.23
2018-01-30T14:11:34.743Z,41.33
2018-01-30T14:21:50.118Z,40.37
2018-01-30T14:32:02.815Z,38.70
2018-01-30T14:42:15.068Z,36.33
2018-01-30T14:52:23.368Z,33.47
2018-01-30T15:02:36.583Z,32.00
2018-01-30T15:12:51.295Z,29.93
2018-01-30T15:23:02.716Z,25.77
2018-01-30T15:43:26.425Z,21.10
2018-01-30T15:53:35.128Z,17.80
2018-01-30T16:03:48.166Z,17.90
2018-01-30T16:13:59.230Z,15.20
2018-01-30T16:24:10.344Z,15.90
2018-01-30T16:34:18.681Z,15.13
2018-01-30T16:44:29.695Z,14.67
2018-01-30T16:54:43.679Z,13.13
2018-01-30T17:04:53.167Z,12.30
2018-01-30T17:15:01.810Z,12.60
2018-01-30T17:25:14.879Z,11.53
2018-01-30T17:35:22.917Z,11.57
2018-01-30T17:45:32.461Z,10.73
2018-01-30T17:55:40.876Z,11.07
2018-01-30T18:05:50.514Z,10.90
2018-01-30T18:16:01.318Z,11.10
2018-01-30T18:26:09.602Z,10.00
2018-01-30T18:36:20.408Z,9.33
2018-01-30T18:46:31.025Z,10.17
2018-01-30T18:56:40.677Z,9.40
2018-01-30T19:06:56.826Z,9.80
2018-01-30T19:17:06.396Z,9.50
2018-01-30T19:27:16.609Z,9.43
2018-01-30T19:37:29.175Z,9.00
2018-01-30T19:47:39.547Z,9.53
2018-01-30T19:57:48.423Z,8.43
2018-01-30T20:07:56.716Z,9.03
2018-01-30T20:18:06.567Z,8.50
2018-01-30T20:28:20.031Z,7.93
2018-01-30T20:38:29.687Z,7.93
2018-01-30T20:48:39.060Z,8.10
2018-01-30T20:58:48.432Z,7.30
2018-01-30T21:08:56.269Z,7.50
2018-01-30T21:19:12.418Z,7.40
2018-01-30T21:29:24.335Z,7.50
2018-01-30T21:39:34.300Z,6.67
2018-01-30T21:49:44.204Z,6.50
2018-01-30T21:59:53.150Z,6.50
2018-01-30T22:10:04.047Z,6.70
2018-01-30T22:20:12.678Z,6.90
2018-01-30T22:30:23.461Z,6.70
2018-01-30T22:40:31.782Z,6.50
